createdAt,value
2022-09-15T00:01:57.954Z,16.87
2022-09-15T00:04:24.568Z,16.85
2022-09-15T00:06:51.189Z,16.85
2022-09-15T00:09:17.731Z,16.82
2022-09-15T00:11:44.236Z,16.81
2022-09-15T00:14:10.940Z,16.83
2022-09-15T00:16:38.542Z,16.78
2022-09-15T00:19:06.612Z,16.70
2022-09-15T00:21:35.045Z,16.67
2022-09-15T00:24:02.355Z,16.62
2022-09-15T00:26:30.179Z,16.53
2022-09-15T00:28:58.238Z,16.55
2022-09-15T00:31:26.640Z,16.57
2022-09-15T00:33:58.645Z,16.56
2022-09-15T00:36:26.922Z,16.59
2022-09-15T00:38:54.334Z,16.60
2022-09-15T00:41:22.639Z,16.60
2022-09-15T00:43:54.954Z,16.61
2022-09-15T00:46:39.129Z,16.63
2022-09-15T00:49:14.711Z,16.63
2022-09-15T00:52:07.330Z,16.62
2022-09-15T00:54:52.981Z,16.64
2022-09-15T00:57:26.791Z,16.67
2022-09-15T00:59:55.486Z,16.68
2022-09-15T01:02:24.882Z,16.67
2022-09-15T01:04:57.529Z,16.66
2022-09-15T01:07:32.122Z,16.62
2022-09-15T01:10:02.959Z,16.58
2022-09-15T01:12:29.475Z,16.49
2022-09-15T01:14:56.018Z,16.43
2022-09-15T01:17:44.566Z,16.44
2022-09-15T01:20:26.391Z,16.47
2022-09-15T01:22:53.060Z,16.46
2022-09-15T01:25:45.074Z,16.47
2022-09-15T01:28:46.986Z,16.47
2022-09-15T01:31:25.539Z,16.46
2022-09-15T01:33:54.144Z,16.45
2022-09-15T01:36:31.134Z,16.49
2022-09-15T01:39:05.294Z,16.47
2022-09-15T01:41:50.296Z,16.56
2022-09-15T01:44:24.806Z,16.54
2022-09-15T01:46:57.169Z,16.51
2022-09-15T01:49:29.475Z,16.48
2022-09-15T01:51:56.060Z,16.48
2022-09-15T01:54:28.184Z,16.45
2022-09-15T01:56:54.784Z,16.55
2022-09-15T01:59:21.406Z,16.41
2022-09-15T02:01:58.838Z,16.40
2022-09-15T02:04:36.702Z,16.43
2022-09-15T02:07:08.030Z,16.44
2022-09-15T02:09:40.186Z,16.44
2022-09-15T02:12:29.168Z,16.54
2022-09-15T02:15:01.056Z,16.56
2022-09-15T02:17:31.290Z,16.51
2022-09-15T02:20:10.124Z,16.61
2022-09-15T02:22:40.555Z,16.77
2022-09-15T02:25:12.895Z,16.70
2022-09-15T02:27:44.740Z,16.64
2022-09-15T02:30:15.136Z,16.62
2022-09-15T02:32:49.077Z,16.59
2022-09-15T02:35:17.261Z,16.58
2022-09-15T02:37:44.869Z,16.56
2022-09-15T02:40:11.597Z,16.55
2022-09-15T02:42:39.237Z,16.54
2022-09-15T02:45:06.663Z,16.58
2022-09-15T02:47:33.263Z,16.56
2022-09-15T02:50:00.160Z,16.53
2022-09-15T02:52:26.769Z,16.55
2022-09-15T02:54:54.339Z,16.57
2022-09-15T02:57:21.048Z,16.54
2022-09-15T03:00:03.386Z,16.56
2022-09-15T03:02:30.186Z,16.56
2022-09-15T03:04:56.831Z,16.56
2022-09-15T03:07:23.499Z,16.58
2022-09-15T03:09:50.398Z,16.54
2022-09-15T03:12:17.756Z,16.54
2022-09-15T03:14:44.500Z,16.52
2022-09-15T03:17:11.056Z,16.50
2022-09-15T03:19:37.800Z,16.50
2022-09-15T03:22:04.916Z,16.51
2022-09-15T03:24:31.485Z,16.50
2022-09-15T03:26:58.012Z,16.51
2022-09-15T03:29:24.624Z,16.50
2022-09-15T03:31:51.636Z,16.50
2022-09-15T03:34:18.411Z,16.50
2022-09-15T03:36:44.999Z,16.50
2022-09-15T03:39:12.608Z,16.51
2022-09-15T03:41:39.148Z,16.50
2022-09-15T03:44:05.880Z,16.53
2022-09-15T03:46:32.970Z,16.58
2022-09-15T03:48:59.580Z,16.52
2022-09-15T03:51:26.129Z,16.51
2022-09-15T03:53:52.836Z,16.51
2022-09-15T03:56:31.702Z,16.51
2022-09-15T03:58:59.690Z,16.51
2022-09-15T04:01:26.335Z,16.49
2022-09-15T04:03:53.066Z,16.48
2022-09-15T04:06:21.617Z,16.50
2022-09-15T04:08:50.626Z,16.50
2022-09-15T04:11:19.822Z,16.51
2022-09-15T04:13:47.066Z,16.51
2022-09-15T04:16:17.192Z,16.52
2022-09-15T04:18:44.711Z,16.53
2022-09-15T04:21:14.842Z,16.56
2022-09-15T04:23:42.567Z,16.56
2022-09-15T04:26:16.759Z,16.51
2022-09-15T04:28:43.415Z,16.53
2022-09-15T04:31:13.476Z,16.50
2022-09-15T04:33:42.483Z,16.49
2022-09-15T04:36:15.889Z,16.53
2022-09-15T04:38:43.355Z,16.53
2022-09-15T04:41:10.596Z,16.46
2022-09-15T04:43:37.534Z,16.47
2022-09-15T04:46:04.480Z,16.46
2022-09-15T04:48:31.942Z,16.47
2022-09-15T04:51:03.781Z,16.48
2022-09-15T04:53:30.992Z,16.53
2022-09-15T04:56:06.567Z,16.68
2022-09-15T04:58:42.713Z,16.57
2022-09-15T05:01:10.984Z,16.56
2022-09-15T05:03:38.406Z,16.49
2022-09-15T05:06:07.518Z,16.46
2022-09-15T05:08:34.213Z,16.44
2022-09-15T05:11:02.823Z,16.43
2022-09-15T05:13:29.440Z,16.41
2022-09-15T05:15:57.540Z,16.42
2022-09-15T05:18:24.490Z,16.47
2022-09-15T05:20:58.862Z,16.47
2022-09-15T05:23:25.416Z,16.44
2022-09-15T05:25:56.807Z,16.45
2022-09-15T05:28:24.833Z,16.44
2022-09-15T05:30:52.972Z,16.48
2022-09-15T05:33:21.291Z,16.46
2022-09-15T05:35:51.960Z,16.46
2022-09-15T05:38:18.535Z,16.47
2022-09-15T05:40:45.683Z,16.49
2022-09-15T05:43:12.706Z,16.49
2022-09-15T05:45:41.605Z,16.49
2022-09-15T05:48:10.374Z,16.50
2022-09-15T05:50:38.543Z,16.51
2022-09-15T05:53:07.542Z,16.54
2022-09-15T05:55:38.131Z,16.55
2022-09-15T05:58:04.727Z,16.54
2022-09-15T06:00:31.327Z,16.57
2022-09-15T06:02:57.989Z,16.60
2022-09-15T06:05:24.637Z,16.62
2022-09-15T06:07:53.908Z,16.65
2022-09-15T06:10:22.789Z,16.71
2022-09-15T06:12:49.554Z,16.70
2022-09-15T06:15:16.191Z,16.74
2022-09-15T06:17:42.719Z,16.75
2022-09-15T06:20:10.034Z,16.75
2022-09-15T06:22:36.604Z,16.79
2022-09-15T06:25:03.414Z,16.79
2022-09-15T06:27:30.027Z,16.82
2022-09-15T06:29:56.607Z,16.90
2022-09-15T06:32:23.411Z,16.89
2022-09-15T06:34:50.025Z,16.93
2022-09-15T06:37:16.774Z,16.96
2022-09-15T06:39:44.337Z,16.98
2022-09-15T06:42:13.749Z,17.03
2022-09-15T06:44:40.671Z,17.05
2022-09-15T06:47:07.462Z,17.10
2022-09-15T06:49:34.036Z,17.12
2022-09-15T06:52:02.552Z,17.16
2022-09-15T06:54:29.183Z,17.18
2022-09-15T06:56:55.862Z,17.22
2022-09-15T06:59:24.596Z,17.22
2022-09-15T07:01:54.655Z,17.24
2022-09-15T07:04:22.198Z,17.25
2022-09-15T07:06:50.471Z,17.36
2022-09-15T07:09:17.079Z,17.37
2022-09-15T07:11:43.653Z,17.37
2022-09-15T07:14:11.163Z,17.39
2022-09-15T07:16:37.914Z,17.44
2022-09-15T07:19:05.976Z,17.71
2022-09-15T07:21:33.648Z,17.70
2022-09-15T07:24:04.982Z,17.65
2022-09-15T07:26:33.946Z,17.60
2022-09-15T07:29:03.215Z,17.59
2022-09-15T07:31:33.571Z,17.57
2022-09-15T07:34:01.143Z,17.62
2022-09-15T07:36:28.247Z,17.74
2022-09-15T07:38:54.804Z,17.80
2022-09-15T07:41:23.815Z,18.10
2022-09-15T07:43:53.071Z,18.19
2022-09-15T07:46:21.813Z,18.16
2022-09-15T07:48:50.205Z,18.17
2022-09-15T07:51:17.548Z,18.20
2022-09-15T07:53:46.786Z,18.19
2022-09-15T07:56:14.347Z,18.15
2022-09-15T07:58:40.972Z,18.00
2022-09-15T08:01:11.600Z,17.93
2022-09-15T08:03:42.794Z,17.88
2022-09-15T08:06:10.177Z,17.80
2022-09-15T08:08:39.577Z,17.57
2022-09-15T08:11:14.039Z,17.43
2022-09-15T08:13:43.159Z,17.34
2022-09-15T08:16:12.776Z,17.38
2022-09-15T08:18:42.121Z,17.26
2022-09-15T08:21:12.603Z,17.10
2022-09-15T08:23:39.540Z,17.14
2022-09-15T08:26:11.782Z,17.07
2022-09-15T08:28:40.585Z,16.94
2022-09-15T08:31:09.137Z,16.99
2022-09-15T08:33:36.054Z,17.02
2022-09-15T08:36:06.306Z,16.96
2022-09-15T08:38:36.665Z,16.95
2022-09-15T08:41:07.718Z,16.95
2022-09-15T08:43:42.626Z,16.81
2022-09-15T08:46:15.778Z,16.79
2022-09-15T08:48:53.063Z,16.92
2022-09-15T08:51:28.487Z,16.87
2022-09-15T08:54:03.301Z,16.85
2022-09-15T08:56:30.681Z,16.82
2022-09-15T08:58:57.375Z,16.84
2022-09-15T09:01:35.826Z,16.88
2022-09-15T09:04:04.453Z,16.88
2022-09-15T09:06:52.892Z,16.96
2022-09-15T09:09:20.492Z,17.04
2022-09-15T09:12:03.625Z,17.01
2022-09-15T09:14:53.100Z,17.08
2022-09-15T09:17:49.698Z,16.93
2022-09-15T09:20:32.129Z,16.85
2022-09-15T09:23:01.233Z,16.85
2022-09-15T09:25:28.510Z,16.93
2022-09-15T09:27:58.387Z,16.85
2022-09-15T09:30:29.028Z,16.88
2022-09-15T09:33:10.881Z,16.90
2022-09-15T09:35:45.853Z,16.88
2022-09-15T09:38:19.938Z,16.84
2022-09-15T09:40:47.164Z,16.85
2022-09-15T09:43:13.841Z,16.81
2022-09-15T09:45:40.404Z,16.80
2022-09-15T09:48:18.152Z,16.82
2022-09-15T09:50:45.071Z,16.88
2022-09-15T09:53:33.743Z,16.87
2022-09-15T09:56:18.512Z,16.91
2022-09-15T09:58:45.344Z,17.10
2022-09-15T10:01:14.878Z,17.23
2022-09-15T10:03:43.898Z,17.33
2022-09-15T10:06:22.367Z,17.30
2022-09-15T10:09:20.420Z,17.44
2022-09-15T10:11:48.492Z,17.42
2022-09-15T10:14:36.281Z,17.44
2022-09-15T10:17:08.995Z,17.40
2022-09-15T10:19:47.319Z,17.53
2022-09-15T10:22:33.736Z,17.59
2022-09-15T10:25:02.653Z,17.54
2022-09-15T10:27:32.844Z,17.48
2022-09-15T10:30:14.687Z,17.56
2022-09-15T10:32:42.567Z,17.59
2022-09-15T10:35:12.908Z,17.61
2022-09-15T10:37:55.786Z,17.57
2022-09-15T10:40:39.578Z,17.62
2022-09-15T10:43:36.573Z,17.54
2022-09-15T10:46:23.999Z,17.54
2022-09-15T10:48:52.105Z,17.59
2022-09-15T10:51:19.698Z,17.64
2022-09-15T10:53:48.371Z,17.72
2022-09-15T10:56:22.222Z,17.64
2022-09-15T10:59:19.196Z,17.74
2022-09-15T11:02:07.742Z,17.75
2022-09-15T11:04:58.350Z,17.88
2022-09-15T11:07:40.272Z,17.99
2022-09-15T11:10:32.738Z,18.02
2022-09-15T11:13:20.860Z,18.05
2022-09-15T11:15:47.412Z,18.10
2022-09-15T11:18:44.227Z,18.06
2022-09-15T11:21:22.057Z,18.17
2022-09-15T11:24:11.756Z,18.11
2022-09-15T11:26:44.115Z,18.20
2022-09-15T11:29:28.162Z,18.36
2022-09-15T11:34:45.196Z,18.55
2022-09-15T11:37:19.701Z,18.50
2022-09-15T11:39:56.667Z,18.59
2022-09-15T11:42:31.070Z,18.65
2022-09-15T11:45:00.002Z,18.73
2022-09-15T11:47:26.548Z,18.75
2022-09-15T11:50:04.038Z,18.78
2022-09-15T11:52:44.871Z,18.84
2022-09-15T11:55:23.215Z,18.98
2022-09-15T11:57:50.759Z,18.94
2022-09-15T12:00:17.396Z,19.03
2022-09-15T12:02:58.273Z,19.06
2022-09-15T12:05:29.129Z,19.16
2022-09-15T12:08:04.192Z,19.28
2022-09-15T12:10:40.274Z,19.22
2022-09-15T12:13:12.212Z,19.16
2022-09-15T12:15:39.194Z,19.08
2022-09-15T12:18:44.846Z,19.18
2022-09-15T12:21:18.627Z,19.34
2022-09-15T12:24:11.080Z,19.52
2022-09-15T12:26:38.577Z,19.60
2022-09-15T12:29:25.992Z,19.83
2022-09-15T12:32:20.841Z,19.98
2022-09-15T12:35:02.764Z,20.22
2022-09-15T12:37:35.220Z,20.34
2022-09-15T12:40:07.785Z,20.47
2022-09-15T12:42:37.200Z,20.56
2022-09-15T12:45:20.188Z,20.63
2022-09-15T12:48:07.156Z,20.66
2022-09-15T12:50:41.025Z,20.74
2022-09-15T12:53:23.291Z,20.70
2022-09-15T12:55:55.435Z,20.58
2022-09-15T12:58:33.339Z,20.67
2022-09-15T13:01:35.352Z,20.71
2022-09-15T13:04:02.145Z,20.72
2022-09-15T13:06:29.471Z,20.70
2022-09-15T13:09:26.696Z,20.69
2022-09-15T13:11:54.591Z,20.63
2022-09-15T13:14:27.934Z,20.59
2022-09-15T13:17:16.645Z,20.50
2022-09-15T13:19:47.810Z,20.14
2022-09-15T13:22:27.265Z,19.91
2022-09-15T13:25:02.064Z,19.63
2022-09-15T13:27:43.993Z,19.06
2022-09-15T13:30:26.915Z,18.71
2022-09-15T13:33:22.415Z,18.52
2022-09-15T13:36:07.961Z,18.45
2022-09-15T13:38:44.260Z,18.15
2022-09-15T13:41:42.942Z,18.06
2022-09-15T13:44:29.415Z,17.77
2022-09-15T13:46:55.920Z,17.78
2022-09-15T13:49:53.447Z,17.94
2022-09-15T13:52:22.256Z,18.03
2022-09-15T13:55:27.818Z,17.98
2022-09-15T14:00:58.797Z,18.05
2022-09-15T14:03:37.005Z,17.98
2022-09-15T14:06:12.271Z,18.08
2022-09-15T14:08:40.584Z,18.19
2022-09-15T14:11:13.129Z,18.16
2022-09-15T14:13:46.346Z,18.33
2022-09-15T14:16:30.561Z,18.36
2022-09-15T14:18:58.664Z,18.45
2022-09-15T14:21:28.096Z,18.51
2022-09-15T14:23:57.181Z,18.53
2022-09-15T14:26:26.893Z,18.55
2022-09-15T14:28:58.991Z,18.49
2022-09-15T14:31:43.459Z,18.50
2022-09-15T14:34:19.985Z,18.55
2022-09-15T14:36:54.358Z,18.50
2022-09-15T14:39:22.287Z,18.42
2022-09-15T14:41:50.335Z,18.42
2022-09-15T14:47:12.961Z,18.52
2022-09-15T14:49:39.798Z,18.50
2022-09-15T14:52:22.687Z,18.47
2022-09-15T14:54:50.597Z,18.49
2022-09-15T14:57:23.227Z,18.59
2022-09-15T14:59:55.766Z,18.53
2022-09-15T15:02:38.839Z,18.48
2022-09-15T15:05:14.901Z,18.46
2022-09-15T15:07:42.869Z,18.44
2022-09-15T15:10:20.093Z,18.42
2022-09-15T15:12:52.389Z,18.44
2022-09-15T15:15:19.776Z,18.36
2022-09-15T15:17:50.906Z,18.40
2022-09-15T15:20:22.892Z,18.50
2022-09-15T15:23:22.110Z,18.50
2022-09-15T15:25:48.749Z,18.50
2022-09-15T15:28:35.982Z,18.52
2022-09-15T15:31:12.399Z,18.47
2022-09-15T15:33:46.576Z,18.54
2022-09-15T15:36:13.797Z,18.55
2022-09-15T15:38:51.306Z,18.47
2022-09-15T15:41:24.649Z,18.47
2022-09-15T15:43:57.204Z,18.37
2022-09-15T15:46:49.134Z,18.40
2022-09-15T15:49:16.898Z,18.40
2022-09-15T15:51:44.051Z,18.34
2022-09-15T15:54:11.096Z,18.28
2022-09-15T15:56:38.143Z,18.25
2022-09-15T15:59:05.816Z,18.20
2022-09-15T16:01:33.316Z,18.11
2022-09-15T16:04:00.050Z,18.08
2022-09-15T16:06:27.116Z,17.99
2022-09-15T16:08:56.060Z,17.89
2022-09-15T16:11:22.642Z,17.87
2022-09-15T16:13:49.327Z,17.87
2022-09-15T16:16:19.674Z,17.90
2022-09-15T16:18:48.134Z,17.89
2022-09-15T16:21:19.125Z,17.94
2022-09-15T16:23:46.578Z,17.78
2022-09-15T16:26:16.781Z,17.77
2022-09-15T16:28:43.648Z,17.74
2022-09-15T16:31:13.347Z,17.72
2022-09-15T16:33:41.759Z,17.69
2022-09-15T16:36:12.553Z,17.74
2022-09-15T16:38:39.685Z,17.71
2022-09-15T16:41:15.771Z,17.57
2022-09-15T16:43:43.288Z,17.50
2022-09-15T16:46:11.840Z,17.48
2022-09-15T16:48:40.062Z,17.57
2022-09-15T16:51:30.869Z,17.47
2022-09-15T16:53:59.518Z,17.45
2022-09-15T16:56:26.999Z,17.51
2022-09-15T16:58:58.820Z,17.37
2022-09-15T17:01:26.038Z,17.30
2022-09-15T17:03:52.669Z,17.30
2022-09-15T17:06:19.546Z,17.35
2022-09-15T17:08:46.183Z,17.27
2022-09-15T17:11:16.816Z,17.26
2022-09-15T17:13:44.437Z,17.21
2022-09-15T17:16:13.897Z,17.14
2022-09-15T17:18:40.972Z,17.02
2022-09-15T17:21:11.054Z,16.96
2022-09-15T17:23:40.351Z,16.91
2022-09-15T17:26:12.473Z,16.92
2022-09-15T17:28:39.755Z,16.79
2022-09-15T17:31:23.041Z,16.68
2022-09-15T17:33:50.929Z,16.65
2022-09-15T17:36:18.188Z,16.65
2022-09-15T17:38:45.454Z,16.57
2022-09-15T17:41:16.021Z,16.53
2022-09-15T17:43:42.967Z,16.60
2022-09-15T17:46:09.635Z,16.59
2022-09-15T17:48:38.978Z,16.52
2022-09-15T17:51:07.234Z,16.55
2022-09-15T17:53:36.517Z,16.49
2022-09-15T17:56:03.146Z,16.42
2022-09-15T17:58:31.439Z,16.41
2022-09-15T18:00:58.648Z,16.40
2022-09-15T18:03:26.896Z,16.38
2022-09-15T18:05:55.512Z,16.32
2022-09-15T18:08:22.301Z,16.38
2022-09-15T18:10:48.978Z,16.37
2022-09-15T18:13:19.050Z,16.34
2022-09-15T18:15:46.261Z,16.39
2022-09-15T18:18:16.621Z,16.25
2022-09-15T18:20:43.520Z,16.29
2022-09-15T18:23:14.034Z,16.30
2022-09-15T18:25:41.763Z,16.36
2022-09-15T18:28:09.098Z,16.25
2022-09-15T18:30:40.719Z,16.34
2022-09-15T18:33:14.045Z,16.23
2022-09-15T18:35:41.379Z,16.18
2022-09-15T18:38:08.599Z,16.17
2022-09-15T18:40:35.844Z,16.16
2022-09-15T18:43:02.633Z,16.16
2022-09-15T18:45:29.261Z,16.21
2022-09-15T18:47:55.899Z,16.27
2022-09-15T18:50:25.259Z,16.26
2022-09-15T18:52:51.850Z,16.31
2022-09-15T18:55:21.853Z,16.35
2022-09-15T18:57:49.128Z,16.32
2022-09-15T19:00:19.087Z,16.42
2022-09-15T19:02:46.052Z,16.46
2022-09-15T19:05:17.124Z,16.49
2022-09-15T19:07:44.825Z,16.48
2022-09-15T19:10:13.668Z,16.51
2022-09-15T19:12:40.925Z,16.47
2022-09-15T19:15:12.046Z,16.53
2022-09-15T19:17:39.828Z,16.53
2022-09-15T19:20:08.741Z,16.50
2022-09-15T19:22:36.748Z,16.39
2022-09-15T19:25:04.788Z,16.38
2022-09-15T19:27:31.534Z,16.50
2022-09-15T19:29:58.245Z,16.46
2022-09-15T19:32:24.873Z,16.45
2022-09-15T19:34:51.505Z,16.33
2022-09-15T19:37:20.908Z,16.26
2022-09-15T19:39:48.340Z,16.34
2022-09-15T19:44:48.051Z,16.27
2022-09-15T19:47:15.013Z,16.31
2022-09-15T19:49:41.640Z,16.33
2022-09-15T19:52:08.184Z,16.26
2022-09-15T19:54:35.050Z,16.14
2022-09-15T19:57:02.109Z,16.21
2022-09-15T19:59:31.597Z,16.16
2022-09-15T20:01:59.627Z,16.13
2022-09-15T20:04:27.186Z,16.00
2022-09-15T20:06:53.807Z,16.04
2022-09-15T20:09:20.577Z,15.90
2022-09-15T20:11:47.235Z,15.96
2022-09-15T20:14:13.978Z,15.89
2022-09-15T20:16:41.210Z,15.95
2022-09-15T20:19:10.877Z,15.89
2022-09-15T20:21:50.343Z,15.74
2022-09-15T20:24:18.593Z,15.71
2022-09-15T20:26:45.189Z,15.58
2022-09-15T20:29:12.243Z,15.60
2022-09-15T20:31:39.430Z,15.58
2022-09-15T20:34:06.240Z,15.47
2022-09-15T20:36:36.111Z,15.49
2022-09-15T20:39:04.790Z,15.33
2022-09-15T20:41:37.889Z,15.29
2022-09-15T20:44:06.027Z,15.30
2022-09-15T20:46:33.561Z,15.32
2022-09-15T20:49:00.453Z,15.34
2022-09-15T20:51:31.584Z,15.30
2022-09-15T20:53:59.866Z,15.18
2022-09-15T20:56:28.943Z,15.09
2022-09-15T20:58:58.466Z,15.10
2022-09-15T21:01:28.236Z,15.04
2022-09-15T21:03:56.068Z,15.01
2022-09-15T21:06:26.135Z,14.96
2022-09-15T21:08:54.020Z,14.94
2022-09-15T21:11:21.322Z,15.01
2022-09-15T21:13:49.426Z,15.01
2022-09-15T21:16:18.638Z,14.86
2022-09-15T21:18:45.742Z,14.81
2022-09-15T21:21:15.537Z,14.77
2022-09-15T21:23:44.539Z,14.76
2022-09-15T21:26:20.932Z,14.70
2022-09-15T21:28:48.800Z,14.76
2022-09-15T21:31:19.172Z,14.71
2022-09-15T21:33:47.348Z,14.66
2022-09-15T21:36:18.004Z,14.74
2022-09-15T21:38:45.418Z,14.71
2022-09-15T21:41:15.703Z,14.67
2022-09-15T21:43:44.919Z,14.67
2022-09-15T21:46:13.784Z,14.60
2022-09-15T21:48:41.113Z,14.60
2022-09-15T21:51:11.577Z,14.50
2022-09-15T21:53:38.709Z,14.55
2022-09-15T21:56:08.537Z,14.58
2022-09-15T21:58:42.412Z,14.50
2022-09-15T22:01:20.311Z,14.52
2022-09-15T22:03:49.877Z,14.50
2022-09-15T22:06:19.275Z,14.48
2022-09-15T22:08:46.714Z,14.45
2022-09-15T22:11:14.240Z,14.44
2022-09-15T22:13:43.679Z,14.45
2022-09-15T22:16:13.886Z,14.45
2022-09-15T22:18:41.628Z,14.49
2022-09-15T22:21:10.164Z,14.47
2022-09-15T22:23:37.221Z,14.50
2022-09-15T22:26:06.416Z,14.45
2022-09-15T22:28:33.072Z,14.49
2022-09-15T22:31:01.322Z,14.39
2022-09-15T22:33:28.613Z,14.42
2022-09-15T22:35:57.021Z,14.38
2022-09-15T22:38:25.323Z,14.44
2022-09-15T22:40:51.943Z,14.46
2022-09-15T22:43:18.588Z,14.46
2022-09-15T22:45:45.213Z,14.39
2022-09-15T22:48:12.342Z,14.42
2022-09-15T22:50:39.000Z,14.38
2022-09-15T22:53:06.045Z,14.43
2022-09-15T22:55:32.919Z,14.44
2022-09-15T22:57:59.601Z,14.40
2022-09-15T23:00:26.833Z,14.47
2022-09-15T23:02:53.580Z,14.42
2022-09-15T23:05:20.237Z,14.50
2022-09-15T23:07:46.793Z,14.52
2022-09-15T23:10:13.487Z,14.52
2022-09-15T23:12:40.302Z,14.54
2022-09-15T23:15:07.519Z,14.45
2022-09-15T23:17:34.480Z,14.43
2022-09-15T23:20:01.487Z,14.41
2022-09-15T23:22:28.141Z,14.42
2022-09-15T23:24:54.891Z,14.41
2022-09-15T23:27:21.530Z,14.36
2022-09-15T23:29:48.135Z,14.39
2022-09-15T23:32:14.735Z,14.31
2022-09-15T23:34:41.324Z,14.46
2022-09-15T23:37:07.866Z,14.44
2022-09-15T23:39:34.425Z,14.47
2022-09-15T23:42:01.309Z,14.50
2022-09-15T23:44:27.973Z,14.44
2022-09-15T23:46:54.619Z,14.38
2022-09-15T23:49:21.192Z,14.39
2022-09-15T23:51:47.795Z,14.31
2022-09-15T23:54:14.545Z,14.28
2022-09-15T23:56:41.159Z,14.32
2022-09-15T23:59:07.699Z,14.26
